Time;durP1;ratioP1;P1;durP2;ratioP2;P2;SDS_P1;SDS_P2;PMS_P1;PMS_P2;Temp;Humidity;BMP_temperature;BMP_pressure;BME280_temperature;BME280_humidity;BME280_pressure;Samples;Min_cycle;Max_cycle;Signal;HPM_P1;HPM_P2
2022/07/27 00:01:48;;;;;;;;;;;19.90;68.10;;;;;;5023563;28;19909;-67
2022/07/27 00:04:14;;;;;;;;;;;19.90;68.10;;;;;;5031167;28;19992;-67
2022/07/27 00:06:39;;;;;;;;;;;19.90;68.10;;;;;;5024713;28;19913;-67
2022/07/27 00:09:05;;;;;;;;;;;19.90;68.20;;;;;;5023355;28;20277;-67
2022/07/27 00:11:30;;;;;;;;;;;19.80;68.20;;;;;;5023407;28;19924;-67
2022/07/27 00:13:56;;;;;;;;;;;19.80;68.30;;;;;;5023108;28;20268;-67
2022/07/27 00:16:21;;;;;;;;;;;19.80;68.30;;;;;;5005322;28;19913;-67
2022/07/27 00:18:47;;;;;;;;;;;19.70;68.20;;;;;;5023241;28;19913;-67
2022/07/27 00:21:13;;;;;;;;;;;19.70;68.40;;;;;;5041498;28;20355;-67
2022/07/27 00:23:39;;;;;;;;;;;19.70;68.40;;;;;;5012858;28;19919;-67
2022/07/27 00:26:05;;;;;;;;;;;19.70;68.40;;;;;;5022953;28;19924;-67
2022/07/27 00:28:30;;;;;;;;;;;19.60;69.10;;;;;;5022487;28;19917;-67
2022/07/27 00:30:56;;;;;;;;;;;19.60;68.40;;;;;;5023516;28;20036;-67
2022/07/27 00:33:21;;;;;;;;;;;19.60;68.50;;;;;;5004987;28;19921;-67
2022/07/27 00:35:47;;;;;;;;;;;19.60;68.50;;;;;;5022932;28;19944;-67
2022/07/27 00:38:12;;;;;;;;;;;19.60;68.60;;;;;;5026623;28;19912;-67
2022/07/27 00:40:38;;;;;;;;;;;19.50;68.50;;;;;;5049311;28;19913;-67
2022/07/27 00:43:03;;;;;;;;;;;19.50;68.50;;;;;;5035973;28;19927;-67
2022/07/27 00:45:29;;;;;;;;;;;19.50;68.40;;;;;;5031163;28;19921;-67
2022/07/27 00:47:54;;;;;;;;;;;19.50;68.60;;;;;;5026757;28;19955;-67
2022/07/27 00:50:20;;;;;;;;;;;19.50;68.60;;;;;;5022982;28;19913;-67
2022/07/27 00:52:46;;;;;;;;;;;19.50;68.70;;;;;;5022530;28;19932;-67
2022/07/27 00:55:12;;;;;;;;;;;19.50;68.70;;;;;;5022642;28;19939;-67
2022/07/27 00:57:39;;;;;;;;;;;19.40;68.60;;;;;;5022298;28;20645;-67
2022/07/27 01:00:05;;;;;;;;;;;19.40;68.70;;;;;;5022453;28;19913;-67
2022/07/27 01:02:31;;;;;;;;;;;19.40;68.70;;;;;;5022718;28;19917;-67
2022/07/27 01:04:56;;;;;;;;;;;19.40;68.80;;;;;;5022853;28;19913;-67
2022/07/27 01:07:22;;;;;;;;;;;19.40;68.90;;;;;;5022513;28;20436;-67
2022/07/27 01:09:56;;;;;;;;;;;19.40;68.90;;;;;;5030629;28;19918;-67
2022/07/27 01:12:22;;;;;;;;;;;19.40;68.80;;;;;;5017815;28;19917;-67
2022/07/27 01:14:49;;;;;;;;;;;19.30;68.80;;;;;;5021703;28;19913;-67
2022/07/27 01:17:14;;;;;;;;;;;19.30;68.90;;;;;;5022039;28;20530;-67
2022/07/27 01:19:40;;;;;;;;;;;19.30;68.90;;;;;;5022513;28;19913;-67
2022/07/27 01:22:05;;;;;;;;;;;19.30;68.90;;;;;;5022144;28;19913;-67
2022/07/27 01:24:31;;;;;;;;;;;19.30;68.90;;;;;;5024116;28;19917;-67
2022/07/27 01:26:58;;;;;;;;;;;19.30;69.00;;;;;;4997240;28;20420;-67
2022/07/27 01:29:23;;;;;;;;;;;19.20;68.90;;;;;;5027862;28;20365;-67
2022/07/27 01:31:49;;;;;;;;;;;19.20;69.00;;;;;;5017594;28;19920;-67
2022/07/27 01:34:14;;;;;;;;;;;19.20;69.00;;;;;;5022372;28;19921;-67
2022/07/27 01:36:40;;;;;;;;;;;19.20;69.10;;;;;;5022024;28;20025;-67
2022/07/27 01:39:05;;;;;;;;;;;19.20;69.10;;;;;;5033597;28;19909;-67
2022/07/27 01:41:31;;;;;;;;;;;19.20;69.10;;;;;;5022433;28;19959;-67
2022/07/27 01:43:56;;;;;;;;;;;19.20;69.20;;;;;;5021966;28;19921;-67
2022/07/27 01:46:22;;;;;;;;;;;19.10;69.20;;;;;;5021423;28;19921;-67
2022/07/27 01:48:47;;;;;;;;;;;19.10;69.20;;;;;;5021182;28;19928;-67
2022/07/27 01:51:13;;;;;;;;;;;19.10;69.20;;;;;;5021263;28;20007;-67
2022/07/27 01:53:38;;;;;;;;;;;19.10;69.30;;;;;;5021295;28;19917;-67
2022/07/27 01:56:08;;;;;;;;;;;19.10;69.40;;;;;;5021612;28;20444;-67
2022/07/27 01:58:33;;;;;;;;;;;19.10;69.30;;;;;;5020931;28;19934;-67
2022/07/27 02:00:59;;;;;;;;;;;19.00;69.40;;;;;;5021566;28;20063;-67
2022/07/27 02:03:24;;;;;;;;;;;19.00;69.40;;;;;;5020945;28;19909;-67
2022/07/27 02:05:50;;;;;;;;;;;19.00;69.50;;;;;;5003199;28;19920;-67
2022/07/27 02:08:15;;;;;;;;;;;19.00;69.50;;;;;;5021323;28;19956;-67
2022/07/27 02:12:34;;;;;;;;;;;19.00;69.50;;;;;;5021730;28;19913;-67
2022/07/27 02:13:27;;;;;;;;;;;19.00;69.60;;;;;;5021159;28;20392;-67
2022/07/27 02:15:52;;;;;;;;;;;18.90;69.60;;;;;;5003634;28;19921;-67
2022/07/27 02:18:18;;;;;;;;;;;18.90;69.60;;;;;;5021416;28;19960;-67
2022/07/27 02:20:43;;;;;;;;;;;18.90;69.60;;;;;;5020871;28;20012;-67
2022/07/27 02:23:09;;;;;;;;;;;18.90;69.60;;;;;;5021295;28;19920;-67
2022/07/27 02:25:36;;;;;;;;;;;18.90;69.60;;;;;;5021682;28;19917;-67
2022/07/27 02:28:02;;;;;;;;;;;18.80;69.70;;;;;;5021208;28;19921;-67
2022/07/27 02:30:27;;;;;;;;;;;18.80;69.70;;;;;;5021431;28;19913;-67
2022/07/27 02:32:53;;;;;;;;;;;18.80;69.80;;;;;;5021155;28;20459;-67
2022/07/27 02:35:18;;;;;;;;;;;18.80;69.80;;;;;;5020853;28;19944;-67
2022/07/27 02:37:44;;;;;;;;;;;18.70;69.80;;;;;;5028380;28;20012;-67
2022/07/27 02:40:10;;;;;;;;;;;18.70;69.80;;;;;;5032806;28;20014;-67
2022/07/27 02:42:35;;;;;;;;;;;18.70;69.80;;;;;;5020931;28;20008;-67
2022/07/27 02:45:01;;;;;;;;;;;18.70;69.90;;;;;;5020774;28;19917;-67
2022/07/27 02:47:26;;;;;;;;;;;18.70;69.90;;;;;;5028441;28;19920;-67
2022/07/27 02:49:52;;;;;;;;;;;18.70;69.90;;;;;;5021037;28;19913;-67
2022/07/27 02:52:17;;;;;;;;;;;18.70;70.00;;;;;;5022373;28;20617;-67
2022/07/27 02:54:43;;;;;;;;;;;18.60;69.90;;;;;;5024508;28;20664;-67
2022/07/27 02:57:08;;;;;;;;;;;18.60;69.90;;;;;;5023750;28;19913;-67
2022/07/27 02:59:34;;;;;;;;;;;18.60;70.10;;;;;;5024779;28;20243;-67
2022/07/27 03:01:59;;;;;;;;;;;18.60;70.10;;;;;;5024328;28;19977;-67
2022/07/27 03:04:25;;;;;;;;;;;18.60;70.10;;;;;;5024126;28;19959;-67
2022/07/27 03:06:50;;;;;;;;;;;18.60;70.10;;;;;;5004273;28;19931;-67
2022/07/27 03:09:16;;;;;;;;;;;18.60;70.10;;;;;;5025938;28;19913;-67
2022/07/27 03:11:41;;;;;;;;;;;18.50;70.20;;;;;;5023689;28;19963;-67
2022/07/27 03:14:07;;;;;;;;;;;18.50;70.30;;;;;;5023494;28;19927;-67
2022/07/27 03:16:32;;;;;;;;;;;18.50;70.30;;;;;;5023790;28;19958;-67
2022/07/27 03:18:58;;;;;;;;;;;18.50;70.30;;;;;;5023952;28;19910;-67
2022/07/27 03:21:23;;;;;;;;;;;18.40;70.30;;;;;;5024258;28;19920;-67
2022/07/27 03:23:49;;;;;;;;;;;18.40;70.30;;;;;;5023945;28;19913;-67
2022/07/27 03:26:15;;;;;;;;;;;18.40;70.30;;;;;;5023699;28;19920;-67
2022/07/27 03:28:41;;;;;;;;;;;18.40;70.40;;;;;;5023827;28;19913;-67
2022/07/27 03:31:06;;;;;;;;;;;18.40;70.40;;;;;;5023458;28;20050;-67
2022/07/27 03:33:33;;;;;;;;;;;18.40;70.50;;;;;;5023618;28;19921;-67
2022/07/27 03:35:58;;;;;;;;;;;18.40;70.60;;;;;;5029472;28;20261;-67
2022/07/27 03:38:24;;;;;;;;;;;18.40;70.60;;;;;;5028754;28;19909;-67
2022/07/27 03:40:49;;;;;;;;;;;18.40;70.60;;;;;;5041952;28;20003;-67
2022/07/27 03:43:15;;;;;;;;;;;18.30;70.60;;;;;;5039758;28;20432;-67
2022/07/27 03:45:40;;;;;;;;;;;18.30;70.60;;;;;;5024143;28;19921;-67
2022/07/27 03:48:05;;;;;;;;;;;18.30;70.60;;;;;;5023147;28;19991;-67
2022/07/27 03:50:31;;;;;;;;;;;18.20;70.70;;;;;;5023778;28;19917;-67
2022/07/27 03:52:57;;;;;;;;;;;18.20;70.80;;;;;;5023318;28;19925;-67
2022/07/27 03:55:22;;;;;;;;;;;18.20;70.70;;;;;;5023855;28;20012;-67
2022/07/27 03:57:49;;;;;;;;;;;18.20;70.70;;;;;;5024062;28;19913;-67
2022/07/27 04:00:15;;;;;;;;;;;18.20;70.80;;;;;;5024119;28;19913;-67
2022/07/27 04:02:41;;;;;;;;;;;18.20;70.80;;;;;;5024045;28;19921;-67
2022/07/27 04:05:06;;;;;;;;;;;18.20;70.90;;;;;;5023002;28;19925;-67
2022/07/27 04:07:32;;;;;;;;;;;18.20;70.90;;;;;;5023758;28;20554;-67
2022/07/27 04:09:57;;;;;;;;;;;18.20;70.90;;;;;;5024279;28;20478;-67
2022/07/27 04:12:23;;;;;;;;;;;18.10;71.00;;;;;;5023874;28;19917;-67
2022/07/27 04:14:48;;;;;;;;;;;18.10;71.00;;;;;;5005872;28;19918;-67
2022/07/27 04:17:14;;;;;;;;;;;18.20;71.00;;;;;;5022990;28;20008;-67
2022/07/27 04:19:39;;;;;;;;;;;18.10;71.00;;;;;;5023395;28;19913;-67
2022/07/27 04:22:05;;;;;;;;;;;18.10;71.10;;;;;;5023311;28;20028;-67
2022/07/27 04:24:30;;;;;;;;;;;18.10;71.10;;;;;;5023046;28;19921;-67
2022/07/27 04:26:56;;;;;;;;;;;18.10;71.10;;;;;;5022941;28;19914;-67
2022/07/27 04:29:21;;;;;;;;;;;18.10;71.20;;;;;;5022918;28;20619;-67
2022/07/27 04:31:47;;;;;;;;;;;18.00;71.20;;;;;;5041146;28;19917;-67
2022/07/27 04:34:12;;;;;;;;;;;18.10;71.20;;;;;;5032903;28;20007;-67
2022/07/27 04:36:38;;;;;;;;;;;18.00;71.20;;;;;;5037658;28;19944;-67
2022/07/27 04:39:03;;;;;;;;;;;18.00;71.20;;;;;;5034080;28;19912;-67
2022/07/27 04:41:29;;;;;;;;;;;18.00;71.20;;;;;;5024360;28;19982;-68
2022/07/27 04:43:54;;;;;;;;;;;18.00;71.20;;;;;;5022404;28;20708;-67
2022/07/27 04:46:20;;;;;;;;;;;18.00;71.30;;;;;;5037519;28;19921;-67
2022/07/27 04:48:46;;;;;;;;;;;18.00;71.30;;;;;;5023011;28;19914;-67
2022/07/27 04:51:14;;;;;;;;;;;18.00;71.40;;;;;;5022005;28;19996;-67
2022/07/27 04:53:40;;;;;;;;;;;18.00;71.40;;;;;;5021280;28;19921;-67
2022/07/27 04:56:06;;;;;;;;;;;17.90;71.40;;;;;;5003674;28;20812;-67
2022/07/27 04:58:32;;;;;;;;;;;18.00;71.50;;;;;;5021732;28;19956;-67
2022/07/27 05:00:57;;;;;;;;;;;18.00;71.50;;;;;;5022608;28;19920;-67
2022/07/27 05:03:23;;;;;;;;;;;18.00;71.50;;;;;;5022349;28;19929;-67
2022/07/27 05:05:48;;;;;;;;;;;17.90;71.40;;;;;;5022392;28;19962;-67
2022/07/27 05:08:14;;;;;;;;;;;18.00;71.50;;;;;;5022389;28;20009;-67
2022/07/27 05:10:39;;;;;;;;;;;17.90;71.40;;;;;;5022333;28;19920;-67
2022/07/27 05:13:05;;;;;;;;;;;17.90;71.40;;;;;;5022279;28;19922;-67
2022/07/27 05:15:30;;;;;;;;;;;17.90;71.40;;;;;;5021417;28;19924;-67
2022/07/27 05:17:56;;;;;;;;;;;17.90;71.30;;;;;;5008328;28;20667;-67
2022/07/27 05:20:21;;;;;;;;;;;17.90;71.40;;;;;;5022240;28;20650;-67
2022/07/27 05:22:47;;;;;;;;;;;17.90;71.30;;;;;;5015690;28;19917;-67
2022/07/27 05:25:12;;;;;;;;;;;17.90;71.40;;;;;;5022095;28;19935;-67
2022/07/27 05:27:38;;;;;;;;;;;17.90;71.40;;;;;;5021915;28;19913;-67
2022/07/27 05:30:05;;;;;;;;;;;17.90;71.40;;;;;;5021621;28;19924;-67
2022/07/27 05:32:30;;;;;;;;;;;17.90;71.40;;;;;;5021218;28;20659;-67
2022/07/27 05:34:56;;;;;;;;;;;17.90;71.30;;;;;;5003852;28;19962;-67
2022/07/27 05:37:21;;;;;;;;;;;17.90;71.30;;;;;;5021449;28;19937;-67
2022/07/27 05:39:47;;;;;;;;;;;17.90;71.30;;;;;;5038085;28;19951;-67
2022/07/27 05:42:13;;;;;;;;;;;17.90;71.30;;;;;;5037159;28;19917;-67
2022/07/27 05:44:38;;;;;;;;;;;17.90;71.20;;;;;;5021541;28;19921;-67
2022/07/27 05:47:04;;;;;;;;;;;17.90;71.30;;;;;;5021332;28;19913;-67
2022/07/27 05:49:29;;;;;;;;;;;17.90;71.20;;;;;;5021385;28;20019;-67
2022/07/27 05:51:55;;;;;;;;;;;17.90;71.30;;;;;;5021470;28;19999;-67
2022/07/27 05:54:20;;;;;;;;;;;17.90;71.30;;;;;;5003113;28;19921;-67
2022/07/27 05:56:46;;;;;;;;;;;17.90;71.20;;;;;;5022006;28;19913;-67
2022/07/27 05:59:11;;;;;;;;;;;17.90;71.20;;;;;;5021951;28;20288;-67
2022/07/27 06:01:37;;;;;;;;;;;17.90;71.30;;;;;;5022009;28;20764;-67
2022/07/27 06:04:03;;;;;;;;;;;17.90;71.30;;;;;;5021513;28;20249;-67
2022/07/27 06:09:13;;;;;;;;;;;17.90;71.10;;;;;;5021976;28;19924;-67
2022/07/27 06:11:39;;;;;;;;;;;17.90;71.20;;;;;;5021862;28;20453;-67
2022/07/27 06:14:04;;;;;;;;;;;17.90;71.00;;;;;;5021274;28;20024;-67
2022/07/27 06:16:30;;;;;;;;;;;17.90;71.00;;;;;;5021487;28;19936;-67
2022/07/27 06:18:55;;;;;;;;;;;17.90;71.00;;;;;;5003852;28;20038;-67
2022/07/27 06:21:24;;;;;;;;;;;17.90;71.00;;;;;;5021554;28;19914;-67
2022/07/27 06:23:50;;;;;;;;;;;17.90;71.00;;;;;;5021525;28;19967;-67
2022/07/27 06:26:15;;;;;;;;;;;17.90;71.00;;;;;;5021262;28;20020;-67
2022/07/27 06:28:41;;;;;;;;;;;17.90;71.00;;;;;;5025075;28;20023;-67
2022/07/27 06:31:06;;;;;;;;;;;17.90;70.90;;;;;;5025275;28;20572;-67
2022/07/27 06:33:33;;;;;;;;;;;18.00;71.00;;;;;;5024754;28;19927;-67
2022/07/27 06:35:58;;;;;;;;;;;18.00;71.00;;;;;;5024729;28;20354;-67
2022/07/27 06:38:27;;;;;;;;;;;18.00;70.90;;;;;;5031238;28;19996;-67
2022/07/27 06:40:53;;;;;;;;;;;18.00;70.90;;;;;;5030889;28;19913;-67
2022/07/27 06:43:19;;;;;;;;;;;17.90;70.90;;;;;;5024748;28;19924;-66
2022/07/27 06:45:45;;;;;;;;;;;17.90;70.90;;;;;;5024671;28;20663;-67
2022/07/27 06:48:10;;;;;;;;;;;17.90;70.90;;;;;;5024596;28;19920;-67
2022/07/27 06:50:36;;;;;;;;;;;17.90;70.80;;;;;;5032691;28;19931;-67
2022/07/27 06:53:02;;;;;;;;;;;17.90;70.90;;;;;;5035531;28;19921;-67
2022/07/27 06:55:28;;;;;;;;;;;17.90;70.80;;;;;;5024706;28;20633;-67
2022/07/27 06:57:54;;;;;;;;;;;17.90;70.60;;;;;;5024711;28;19925;-67
2022/07/27 07:00:19;;;;;;;;;;;17.90;70.70;;;;;;5025000;28;19920;-67
2022/07/27 07:02:55;;;;;;;;;;;17.90;70.80;;;;;;5024438;28;19917;-67
2022/07/27 07:05:22;;;;;;;;;;;17.90;70.70;;;;;;5024241;28;20341;-67
2022/07/27 07:07:47;;;;;;;;;;;17.90;70.80;;;;;;5005945;28;20031;-67
2022/07/27 07:10:13;;;;;;;;;;;17.90;70.80;;;;;;5005436;28;19996;-67
2022/07/27 07:12:39;;;;;;;;;;;17.90;70.70;;;;;;5024682;28;20031;-67
2022/07/27 07:15:05;;;;;;;;;;;18.00;70.80;;;;;;5041270;28;20353;-67
2022/07/27 07:17:30;;;;;;;;;;;18.00;70.70;;;;;;5030280;28;19992;-67
2022/07/27 07:19:56;;;;;;;;;;;18.00;70.60;;;;;;5023038;28;20073;-67
2022/07/27 07:22:21;;;;;;;;;;;18.00;70.50;;;;;;5004633;28;19913;-67
2022/07/27 07:24:47;;;;;;;;;;;18.00;70.50;;;;;;5020138;28;20000;-67
2022/07/27 07:27:12;;;;;;;;;;;18.10;70.50;;;;;;5023672;28;19917;-67
2022/07/27 07:29:38;;;;;;;;;;;18.10;70.40;;;;;;5006000;28;20322;-67
2022/07/27 07:32:04;;;;;;;;;;;18.10;70.30;;;;;;5023696;28;19913;-67
2022/07/27 07:34:29;;;;;;;;;;;18.20;70.40;;;;;;5022416;28;19921;-67
2022/07/27 07:36:55;;;;;;;;;;;18.20;70.20;;;;;;5022279;28;19914;-67
2022/07/27 07:39:20;;;;;;;;;;;18.20;70.20;;;;;;5031016;28;19972;-67
2022/07/27 07:41:47;;;;;;;;;;;18.20;70.10;;;;;;5022534;28;20024;-67
2022/07/27 07:44:12;;;;;;;;;;;18.30;70.10;;;;;;5021703;28;19928;-67
2022/07/27 07:46:38;;;;;;;;;;;18.30;69.90;;;;;;5021799;28;19921;-67
2022/07/27 07:49:04;;;;;;;;;;;18.30;69.90;;;;;;5022218;28;19936;-67
2022/07/27 07:51:29;;;;;;;;;;;18.30;69.80;;;;;;5031806;28;19913;-67
2022/07/27 07:53:55;;;;;;;;;;;18.40;69.70;;;;;;5032288;28;19943;-67
2022/07/27 07:56:20;;;;;;;;;;;18.40;69.50;;;;;;5041586;28;19913;-67
2022/07/27 07:58:47;;;;;;;;;;;18.40;69.40;;;;;;5041644;28;19966;-67
2022/07/27 08:01:13;;;;;;;;;;;18.50;69.30;;;;;;5041907;28;19932;-67
2022/07/27 08:03:38;;;;;;;;;;;18.50;69.20;;;;;;5031921;28;19917;-67
2022/07/27 08:06:05;;;;;;;;;;;18.60;69.20;;;;;;5023384;28;19913;-67
2022/07/27 08:08:30;;;;;;;;;;;18.60;69.30;;;;;;5023595;28;20615;-67
2022/07/27 08:10:56;;;;;;;;;;;18.60;69.10;;;;;;5023497;28;19986;-67
2022/07/27 08:13:21;;;;;;;;;;;18.60;69.00;;;;;;5005353;28;19921;-67
2022/07/27 08:15:47;;;;;;;;;;;18.70;69.00;;;;;;5023373;28;19962;-67
2022/07/27 08:18:12;;;;;;;;;;;18.70;69.00;;;;;;5023244;28;19917;-67
2022/07/27 08:20:38;;;;;;;;;;;18.70;68.80;;;;;;5023559;28;19944;-67
2022/07/27 08:23:04;;;;;;;;;;;18.80;68.80;;;;;;5023442;28;19960;-67
2022/07/27 08:25:30;;;;;;;;;;;18.80;68.80;;;;;;5005255;28;19921;-67
2022/07/27 08:27:56;;;;;;;;;;;18.80;68.70;;;;;;5005301;28;19985;-67
2022/07/27 08:30:21;;;;;;;;;;;18.80;68.70;;;;;;5023359;28;20029;-67
2022/07/27 08:32:48;;;;;;;;;;;18.80;68.50;;;;;;5022797;28;19917;-67
2022/07/27 08:35:14;;;;;;;;;;;18.90;68.40;;;;;;5022614;28;19925;-67
2022/07/27 08:37:40;;;;;;;;;;;18.90;68.20;;;;;;5018053;28;19982;-67
2022/07/27 08:40:06;;;;;;;;;;;19.00;68.10;;;;;;5034751;28;19937;-67
2022/07/27 08:42:31;;;;;;;;;;;19.00;67.90;;;;;;5029644;28;20503;-67
2022/07/27 08:44:57;;;;;;;;;;;19.10;67.80;;;;;;5040795;28;19920;-67
2022/07/27 08:47:22;;;;;;;;;;;19.10;67.80;;;;;;5031226;28;20439;-67
2022/07/27 08:49:48;;;;;;;;;;;19.10;67.70;;;;;;5023201;28;19923;-67
2022/07/27 08:52:14;;;;;;;;;;;19.10;67.60;;;;;;5022878;28;20475;-67
2022/07/27 08:54:41;;;;;;;;;;;19.20;67.40;;;;;;5040617;28;20405;-67
2022/07/27 08:57:08;;;;;;;;;;;19.30;67.30;;;;;;5041100;28;20011;-67
2022/07/27 08:59:33;;;;;;;;;;;19.30;67.10;;;;;;5041318;28;19913;-67
2022/07/27 09:01:59;;;;;;;;;;;19.30;67.10;;;;;;5030858;28;19923;-67
2022/07/27 09:04:25;;;;;;;;;;;19.30;67.10;;;;;;5022990;28;19913;-67
2022/07/27 09:06:50;;;;;;;;;;;19.30;67.10;;;;;;5022665;28;19956;-67
2022/07/27 09:09:18;;;;;;;;;;;19.30;67.10;;;;;;5022623;28;19955;-67
2022/07/27 09:12:02;;;;;;;;;;;19.30;67.20;;;;;;5022340;28;20106;-67
2022/07/27 09:14:31;;;;;;;;;;;19.40;67.20;;;;;;5004923;28;20464;-67
2022/07/27 09:16:57;;;;;;;;;;;19.30;66.40;;;;;;5022419;28;20550;-67
2022/07/27 09:19:23;;;;;;;;;;;19.40;67.10;;;;;;5022617;28;19920;-67
2022/07/27 09:21:48;;;;;;;;;;;19.40;67.10;;;;;;5026784;28;20416;-67
2022/07/27 09:24:15;;;;;;;;;;;19.40;67.10;;;;;;5024636;28;19913;-67
2022/07/27 09:26:41;;;;;;;;;;;19.40;67.00;;;;;;5022186;28;20434;-67
2022/07/27 09:29:08;;;;;;;;;;;19.40;67.00;;;;;;5022227;28;19917;-67
2022/07/27 09:31:46;;;;;;;;;;;19.40;66.90;;;;;;5021667;28;19928;-67
2022/07/27 09:34:24;;;;;;;;;;;19.50;66.90;;;;;;5021840;28;19968;-67
2022/07/27 09:36:54;;;;;;;;;;;19.50;66.80;;;;;;5020123;28;20003;-67
2022/07/27 09:39:20;;;;;;;;;;;19.60;66.70;;;;;;5028372;28;20003;-67
2022/07/27 09:41:47;;;;;;;;;;;19.60;66.60;;;;;;5003080;28;19929;-67
2022/07/27 09:44:13;;;;;;;;;;;19.70;66.60;;;;;;5021231;28;20675;-67
2022/07/27 09:46:40;;;;;;;;;;;19.70;66.50;;;;;;5021132;28;19973;-67
2022/07/27 09:49:24;;;;;;;;;;;19.80;66.30;;;;;;5022017;28;19916;-66
2022/07/27 09:51:49;;;;;;;;;;;19.80;66.20;;;;;;5022049;28;20012;-67
2022/07/27 09:54:15;;;;;;;;;;;19.90;66.00;;;;;;5022044;28;20020;-67
2022/07/27 09:56:41;;;;;;;;;;;20.00;65.80;;;;;;5021633;28;19917;-67
2022/07/27 09:59:07;;;;;;;;;;;20.10;65.70;;;;;;5021965;28;19913;-67
2022/07/27 10:01:33;;;;;;;;;;;20.10;65.50;;;;;;5021011;28;20028;-67
2022/07/27 10:04:00;;;;;;;;;;;20.20;65.40;;;;;;5022506;28;19914;-67
2022/07/27 10:06:26;;;;;;;;;;;20.20;65.30;;;;;;5003807;28;19965;-67
2022/07/27 10:08:53;;;;;;;;;;;20.20;65.20;;;;;;5021987;28;19913;-67
2022/07/27 10:11:19;;;;;;;;;;;20.30;65.10;;;;;;5021895;28;19924;-67
2022/07/27 10:13:45;;;;;;;;;;;20.40;65.10;;;;;;5021683;28;19920;-67
2022/07/27 10:16:12;;;;;;;;;;;20.40;64.90;;;;;;5021305;28;19913;-67
2022/07/27 10:18:44;;;;;;;;;;;20.40;65.00;;;;;;5021648;28;19913;-67
2022/07/27 10:21:10;;;;;;;;;;;20.50;65.00;;;;;;5003526;28;19916;-67
2022/07/27 10:23:37;;;;;;;;;;;20.50;64.90;;;;;;5021713;28;19913;-67
2022/07/27 10:26:22;;;;;;;;;;;20.50;64.90;;;;;;5021402;28;19965;-67
2022/07/27 10:28:52;;;;;;;;;;;20.60;64.80;;;;;;5009341;28;20021;-67
2022/07/27 10:31:19;;;;;;;;;;;20.60;64.70;;;;;;5021205;28;19913;-67
2022/07/27 10:33:46;;;;;;;;;;;20.70;64.50;;;;;;5003614;28;19919;-67
2022/07/27 10:36:37;;;;;;;;;;;20.90;64.20;;;;;;5021401;28;19913;-67
2022/07/27 10:39:04;;;;;;;;;;;21.00;63.60;;;;;;5028364;28;19961;-67
2022/07/27 10:41:31;;;;;;;;;;;21.00;63.60;;;;;;5022142;28;19921;-66
2022/07/27 10:44:21;;;;;;;;;;;21.10;63.60;;;;;;5039469;28;19913;-67
2022/07/27 10:46:54;;;;;;;;;;;21.10;63.40;;;;;;5016063;28;20011;-67
2022/07/27 10:49:30;;;;;;;;;;;21.20;63.30;;;;;;5021758;28;19925;-67
2022/07/27 10:51:57;;;;;;;;;;;21.40;63.10;;;;;;5021238;28;19921;-67
2022/07/27 10:54:26;;;;;;;;;;;21.40;62.90;;;;;;5021477;28;19917;-67
2022/07/27 10:56:52;;;;;;;;;;;21.40;62.90;;;;;;5021351;28;20665;-67
2022/07/27 10:59:36;;;;;;;;;;;21.50;62.90;;;;;;5021516;28;19913;-67
2022/07/27 11:02:03;;;;;;;;;;;21.60;62.60;;;;;;5032156;28;19925;-67
2022/07/27 11:04:30;;;;;;;;;;;21.80;62.30;;;;;;5021509;28;19914;-67
2022/07/27 11:06:55;;;;;;;;;;;21.70;62.40;;;;;;5039277;28;20292;-67
2022/07/27 11:09:21;;;;;;;;;;;21.70;62.60;;;;;;5038565;28;19912;-67
2022/07/27 11:11:47;;;;;;;;;;;21.60;62.90;;;;;;5021420;28;20520;-67
2022/07/27 11:14:13;;;;;;;;;;;21.60;63.30;;;;;;5023941;28;19917;-67
2022/07/27 11:16:39;;;;;;;;;;;21.60;63.40;;;;;;5028652;28;20377;-67
2022/07/27 11:19:05;;;;;;;;;;;21.50;63.50;;;;;;5042859;28;19959;-67
2022/07/27 11:21:35;;;;;;;;;;;21.50;63.60;;;;;;5039452;28;20493;-67
2022/07/27 11:24:02;;;;;;;;;;;21.50;63.60;;;;;;5024352;28;19919;-67
2022/07/27 11:26:29;;;;;;;;;;;21.60;63.40;;;;;;5024222;28;20814;-67
2022/07/27 11:28:55;;;;;;;;;;;21.60;63.20;;;;;;5024360;28;19960;-67
2022/07/27 11:31:20;;;;;;;;;;;21.60;63.20;;;;;;5023449;28;19963;-67
2022/07/27 11:33:50;;;;;;;;;;;21.70;63.10;;;;;;5024230;28;19917;-67
2022/07/27 11:36:16;;;;;;;;;;;21.60;62.80;;;;;;5021997;28;19909;-67
2022/07/27 11:38:52;;;;;;;;;;;21.70;62.70;;;;;;5030321;28;19912;-67
2022/07/27 11:41:21;;;;;;;;;;;21.70;62.60;;;;;;5026302;28;19913;-67
2022/07/27 11:43:47;;;;;;;;;;;21.70;62.50;;;;;;5024188;28;19977;-67
2022/07/27 11:46:14;;;;;;;;;;;21.80;62.30;;;;;;5025546;28;19921;-67
2022/07/27 11:49:06;;;;;;;;;;;21.80;62.10;;;;;;5042517;28;19912;-67
2022/07/27 11:51:32;;;;;;;;;;;21.90;62.00;;;;;;5020598;28;20480;-67
2022/07/27 11:53:59;;;;;;;;;;;21.90;62.20;;;;;;5024136;28;19956;-67
2022/07/27 11:56:25;;;;;;;;;;;21.90;62.10;;;;;;5005630;28;19913;-67
2022/07/27 11:59:17;;;;;;;;;;;21.90;62.10;;;;;;5024029;28;19913;-67
2022/07/27 12:01:44;;;;;;;;;;;21.90;62.20;;;;;;5021199;28;19944;-67
2022/07/27 12:04:17;;;;;;;;;;;21.90;62.00;;;;;;5023556;28;19945;-67
2022/07/27 12:06:44;;;;;;;;;;;22.00;62.00;;;;;;5004544;28;20004;-67
2022/07/27 12:09:11;;;;;;;;;;;22.00;61.70;;;;;;5023009;28;19913;-67
2022/07/27 12:12:03;;;;;;;;;;;22.00;61.60;;;;;;5032442;28;20013;-67
2022/07/27 12:14:33;;;;;;;;;;;22.10;61.60;;;;;;5038910;28;20020;-67
2022/07/27 12:17:25;;;;;;;;;;;22.10;61.60;;;;;;5033926;28;19956;-67
2022/07/27 12:19:51;;;;;;;;;;;22.10;61.80;;;;;;5006558;28;20008;-67
2022/07/27 12:22:31;;;;;;;;;;;22.10;61.60;;;;;;5023432;28;19996;-67
2022/07/27 12:24:57;;;;;;;;;;;22.10;61.50;;;;;;5023147;28;20370;-67
2022/07/27 12:27:25;;;;;;;;;;;22.20;61.50;;;;;;5023133;28;19952;-67
2022/07/27 12:29:54;;;;;;;;;;;22.30;61.40;;;;;;5023395;28;20004;-67
2022/07/27 12:32:20;;;;;;;;;;;22.40;61.10;;;;;;5023303;28;20012;-67
2022/07/27 12:34:45;;;;;;;;;;;22.50;60.90;;;;;;5023217;28;20027;-67
2022/07/27 12:37:12;;;;;;;;;;;22.60;60.80;;;;;;5022694;28;19932;-67
2022/07/27 12:39:40;;;;;;;;;;;22.70;60.30;;;;;;5024327;28;19952;-67
2022/07/27 12:42:06;;;;;;;;;;;22.80;60.70;;;;;;5023144;28;19913;-67
2022/07/27 12:44:33;;;;;;;;;;;22.90;60.20;;;;;;5005504;28;19951;-67
2022/07/27 12:47:00;;;;;;;;;;;22.90;60.00;;;;;;5023127;28;19917;-67
2022/07/27 12:49:33;;;;;;;;;;;22.90;60.10;;;;;;5023229;28;19938;-67
2022/07/27 12:52:08;;;;;;;;;;;22.90;60.10;;;;;;5023275;28;19955;-67
2022/07/27 12:54:34;;;;;;;;;;;22.90;60.30;;;;;;5022409;28;20021;-67
2022/07/27 12:56:59;;;;;;;;;;;22.80;60.30;;;;;;5004724;28;19925;-67
2022/07/27 12:59:25;;;;;;;;;;;22.80;60.50;;;;;;5022162;28;19933;-67
2022/07/27 13:01:51;;;;;;;;;;;22.80;60.70;;;;;;5022634;28;19939;-67
2022/07/27 13:04:17;;;;;;;;;;;22.80;60.70;;;;;;5022760;28;20023;-67
2022/07/27 13:06:42;;;;;;;;;;;22.80;60.70;;;;;;5022365;28;20004;-67
2022/07/27 13:09:08;;;;;;;;;;;22.70;60.80;;;;;;5022436;28;19963;-67
2022/07/27 13:11:33;;;;;;;;;;;22.70;61.00;;;;;;5022255;28;19917;-67
2022/07/27 13:13:59;;;;;;;;;;;22.70;61.10;;;;;;5022657;28;19917;-67
2022/07/27 13:16:24;;;;;;;;;;;22.70;60.70;;;;;;5022363;28;19913;-67
2022/07/27 13:18:50;;;;;;;;;;;22.70;60.90;;;;;;5022486;28;20011;-67
2022/07/27 13:21:15;;;;;;;;;;;22.70;60.70;;;;;;5022595;28;19947;-67
2022/07/27 13:23:41;;;;;;;;;;;22.80;60.50;;;;;;5022392;28;19913;-67
2022/07/27 13:26:07;;;;;;;;;;;22.80;60.30;;;;;;5022743;28;20292;-67
2022/07/27 13:28:33;;;;;;;;;;;22.80;60.40;;;;;;5022379;28;19913;-67
2022/07/27 13:30:59;;;;;;;;;;;22.80;60.40;;;;;;5021411;28;19913;-67
2022/07/27 13:33:24;;;;;;;;;;;22.80;60.30;;;;;;5021664;28;19923;-67
2022/07/27 13:35:50;;;;;;;;;;;22.80;60.20;;;;;;5003115;28;19921;-67
2022/07/27 13:38:15;;;;;;;;;;;22.80;60.00;;;;;;5004577;28;19913;-67
2022/07/27 13:40:42;;;;;;;;;;;22.80;60.00;;;;;;5020783;28;19924;-67
2022/07/27 13:43:07;;;;;;;;;;;22.80;60.90;;;;;;5015348;28;19913;-67
2022/07/27 13:45:33;;;;;;;;;;;23.00;60.00;;;;;;5020726;28;19921;-67
2022/07/27 13:47:58;;;;;;;;;;;23.10;60.00;;;;;;5023031;28;19981;-67
2022/07/27 13:50:24;;;;;;;;;;;23.20;59.60;;;;;;5014952;28;19924;-67
2022/07/27 13:52:49;;;;;;;;;;;23.20;59.20;;;;;;5038926;28;19912;-67
2022/07/27 13:55:15;;;;;;;;;;;23.30;59.00;;;;;;5039400;28;20012;-67
2022/07/27 13:57:41;;;;;;;;;;;23.40;58.70;;;;;;5039911;28;20432;-67
2022/07/27 14:00:07;;;;;;;;;;;23.60;58.60;;;;;;5024322;28;19920;-67
2022/07/27 14:02:32;;;;;;;;;;;23.60;58.50;;;;;;5021094;28;19913;-67
2022/07/27 14:04:58;;;;;;;;;;;23.60;58.50;;;;;;5021413;28;19909;-67
2022/07/27 14:07:23;;;;;;;;;;;23.60;58.60;;;;;;5020941;28;19920;-67
2022/07/27 14:12:33;;;;;;;;;;;23.60;58.70;;;;;;5021534;28;20359;-67
2022/07/27 14:14:59;;;;;;;;;;;23.60;58.90;;;;;;5021510;28;19917;-67
2022/07/27 14:17:24;;;;;;;;;;;23.60;59.10;;;;;;5021015;28;19921;-67
2022/07/27 14:19:49;;;;;;;;;;;23.50;59.30;;;;;;5025463;28;20361;-67